Time;durP1;ratioP1;P1;durP2;ratioP2;P2;SDS_P1;SDS_P2;PMS_P1;PMS_P2;Temp;Humidity;BMP_temperature;BMP_pressure;BME280_temperature;BME280_humidity;BME280_pressure;Samples;Min_cycle;Max_cycle;Signal;HPM_P1;HPM_P2
2023/08/16 00:03:51;;;;;;;6.70;5.40;;;22.80;99.90;;;;;;10427332;28;20264;-85
2023/08/16 00:08:58;;;;;;;5.40;5.00;;;22.80;99.90;;;;;;10443455;28;20593;-87
2023/08/16 00:14:00;;;;;;;5.07;4.67;;;22.80;99.90;;;;;;10434144;28;20199;-86
2023/08/16 00:19:02;;;;;;;5.50;5.10;;;22.80;99.90;;;;;;10434992;28;20217;-85
2023/08/16 00:24:07;;;;;;;4.87;4.57;;;22.80;99.90;;;;;;10435226;28;20222;-86
2023/08/16 00:29:09;;;;;;;5.50;5.10;;;22.80;99.90;;;;;;10436794;28;20308;-86
2023/08/16 00:34:11;;;;;;;5.50;5.10;;;22.90;99.90;;;;;;10450560;28;20202;-86
2023/08/16 00:39:14;;;;;;;5.30;4.90;;;22.90;99.90;;;;;;10430204;28;20233;-85
2023/08/16 00:44:17;;;;;;;7.60;7.10;;;22.90;99.90;;;;;;10434839;28;20367;-86
2023/08/16 00:49:19;;;;;;;6.53;6.03;;;22.90;99.90;;;;;;10434396;28;20233;-85
2023/08/16 00:54:22;;;;;;;7.70;7.10;;;22.90;99.90;;;;;;10413576;28;20212;-86
2023/08/16 00:59:27;;;;;;;6.63;6.17;;;23.00;99.90;;;;;;10430409;28;20794;-86
2023/08/16 01:04:30;;;;;;;6.57;5.97;;;23.00;99.90;;;;;;10427121;28;20237;-85
2023/08/16 01:09:34;;;;;;;6.70;6.20;;;22.90;99.90;;;;;;10444250;28;20244;-85
2023/08/16 01:14:45;;;;;;;6.57;6.10;;;22.80;99.90;;;;;;10424319;28;20198;-85
2023/08/16 01:19:48;;;;;;;6.73;6.00;;;22.70;99.90;;;;;;10430354;28;20691;-85
2023/08/16 01:25:08;;;;;;;6.90;6.40;;;22.70;99.90;;;;;;10429402;28;20642;-85
2023/08/16 01:30:13;;;;;;;6.77;6.17;;;22.60;99.90;;;;;;10428673;28;20201;-86
2023/08/16 01:35:15;;;;;;;6.27;5.77;;;22.60;99.90;;;;;;10429176;28;20236;-85
2023/08/16 01:40:18;;;;;;;7.37;6.67;;;22.50;99.90;;;;;;10426179;28;20696;-85
2023/08/16 01:45:22;;;;;;;7.40;6.80;;;22.50;99.90;;;;;;10446714;28;20252;-85
2023/08/16 01:50:26;;;;;;;7.40;6.80;;;22.40;99.90;;;;;;10436606;28;20217;-85
2023/08/16 01:55:28;;;;;;;7.00;6.43;;;22.30;99.90;;;;;;10431986;28;20225;-85
2023/08/16 02:00:31;;;;;;;6.83;6.40;;;22.30;99.90;;;;;;10407480;28;20289;-85
2023/08/16 02:05:34;;;;;;;6.80;6.30;;;22.20;99.90;;;;;;10429165;28;20279;-86
2023/08/16 02:10:37;;;;;;;7.60;7.00;;;22.20;99.90;;;;;;10427033;28;20206;-85
2023/08/16 02:15:41;;;;;;;7.30;6.57;;;22.20;99.90;;;;;;10432631;28;20301;-86
2023/08/16 02:20:43;;;;;;;7.50;6.90;;;22.10;99.90;;;;;;10427944;28;20718;-87
2023/08/16 02:25:45;;;;;;;7.07;6.67;;;22.10;99.90;;;;;;10419944;28;20275;-86
2023/08/16 02:30:48;;;;;;;7.07;6.60;;;22.00;99.90;;;;;;10460042;28;20451;-88
2023/08/16 02:35:50;;;;;;;7.83;6.97;;;22.00;99.90;;;;;;10483365;28;20252;-87
2023/08/16 02:40:52;;;;;;;6.63;6.23;;;22.00;99.90;;;;;;10483254;28;20225;-87
2023/08/16 02:45:57;;;;;;;7.87;7.03;;;21.90;99.90;;;;;;10482148;28;20218;-88
2023/08/16 02:50:59;;;;;;;7.63;7.13;;;21.90;99.90;;;;;;10457814;28;20238;-85
2023/08/16 02:56:01;;;;;;;7.73;7.23;;;21.90;99.90;;;;;;10452524;28;20323;-86
2023/08/16 03:01:05;;;;;;;6.53;6.03;;;21.80;99.90;;;;;;10435147;28;20753;-85
2023/08/16 03:06:07;;;;;;;7.73;7.13;;;21.80;99.90;;;;;;10428801;28;21902;-85
2023/08/16 03:11:09;;;;;;;7.37;6.77;;;21.80;99.90;;;;;;10423052;28;20206;-85
2023/08/16 03:16:13;;;;;;;6.93;6.43;;;21.80;99.90;;;;;;10409040;28;20696;-86
2023/08/16 03:21:15;;;;;;;5.77;5.47;;;21.80;99.90;;;;;;10419828;28;20588;-85
2023/08/16 03:26:17;;;;;;;6.70;6.10;;;21.70;99.90;;;;;;10428262;28;20379;-85
2023/08/16 03:31:22;;;;;;;6.13;5.73;;;21.70;99.90;;;;;;10423582;28;20209;-85
2023/08/16 03:36:25;;;;;;;7.30;6.77;;;21.70;99.90;;;;;;10437955;28;21132;-85
2023/08/16 03:41:27;;;;;;;6.40;5.90;;;21.70;99.90;;;;;;10411342;28;20300;-85
2023/08/16 03:46:31;;;;;;;6.97;6.57;;;21.70;99.90;;;;;;10449143;28;20233;-84
2023/08/16 03:51:33;;;;;;;7.37;6.70;;;21.70;99.90;;;;;;10437932;28;20348;-85
2023/08/16 03:56:36;;;;;;;6.80;6.23;;;21.70;99.90;;;;;;10427360;28;20307;-85
2023/08/16 04:01:39;;;;;;;6.80;6.40;;;21.70;99.90;;;;;;10435396;28;20658;-85
2023/08/16 04:06:41;;;;;;;6.77;6.37;;;21.60;99.90;;;;;;10435645;28;20273;-85
2023/08/16 04:11:43;;;;;;;7.27;6.57;;;21.60;99.90;;;;;;10435831;28;20217;-85
2023/08/16 04:16:47;;;;;;;6.43;6.03;;;21.60;99.90;;;;;;10430775;28;21089;-85
2023/08/16 04:21:51;;;;;;;6.87;6.27;;;21.70;99.90;;;;;;10452984;28;20202;-85
2023/08/16 04:26:54;;;;;;;5.33;4.90;;;21.70;99.90;;;;;;10437512;28;20233;-84
2023/08/16 04:32:00;;;;;;;6.30;5.80;;;21.70;99.90;;;;;;10444984;28;20206;-83
2023/08/16 04:37:03;;;;;;;7.17;6.77;;;21.70;99.90;;;;;;10451583;28;20222;-85
2023/08/16 04:42:05;;;;;;;6.00;5.40;;;21.70;99.90;;;;;;10456792;28;20206;-83
2023/08/16 04:47:09;;;;;;;7.03;6.40;;;21.60;99.90;;;;;;10481894;22;20229;-80
2023/08/16 04:52:11;;;;;;;6.40;6.00;;;21.60;99.90;;;;;;10438686;28;20231;-79
2023/08/16 04:57:13;;;;;;;6.80;6.30;;;21.60;99.90;;;;;;10461237;28;20701;-78
2023/08/16 05:02:17;;;;;;;6.60;6.20;;;21.60;99.90;;;;;;10442312;28;20202;-79
2023/08/16 05:07:19;;;;;;;6.33;5.83;;;21.60;99.90;;;;;;10440671;28;20236;-80
2023/08/16 05:12:22;;;;;;;6.70;6.30;;;21.60;99.90;;;;;;10440319;28;20213;-79
2023/08/16 05:17:25;;;;;;;6.07;5.63;;;21.60;99.90;;;;;;10426225;28;20225;-79
2023/08/16 05:22:27;;;;;;;6.53;6.03;;;21.70;99.90;;;;;;10460624;28;20260;-79
2023/08/16 05:27:30;;;;;;;6.60;6.10;;;21.80;99.90;;;;;;10445210;28;20716;-79
2023/08/16 05:32:33;;;;;;;7.13;6.53;;;21.80;99.90;;;;;;10442397;28;20206;-79
2023/08/16 05:37:35;;;;;;;8.27;7.60;;;21.80;99.90;;;;;;10441919;28;20225;-79
2023/08/16 05:42:38;;;;;;;8.20;7.37;;;21.90;99.90;;;;;;10442536;28;20202;-79
2023/08/16 05:47:42;;;;;;;8.03;7.30;;;21.90;99.90;;;;;;10444023;28;20544;-79
2023/08/16 05:52:44;;;;;;;7.27;6.43;;;22.00;99.90;;;;;;10439987;28;21016;-79
2023/08/16 05:57:46;;;;;;;7.57;6.97;;;22.10;99.90;;;;;;10422421;28;20697;-79
2023/08/16 06:02:49;;;;;;;7.50;7.00;;;22.20;99.90;;;;;;10437483;28;20209;-79
2023/08/16 06:07:51;;;;;;;8.07;6.77;;;22.30;99.90;;;;;;10441124;28;20225;-79
2023/08/16 06:12:53;;;;;;;7.30;6.60;;;22.50;99.90;;;;;;10442687;28;20241;-79
2023/08/16 06:17:57;;;;;;;6.20;5.80;;;22.80;99.90;;;;;;10441993;28;20226;-79
2023/08/16 06:22:59;;;;;;;6.90;6.20;;;23.00;99.90;;;;;;10443074;28;20216;-79
2023/08/16 06:28:01;;;;;;;6.30;5.90;;;23.20;99.90;;;;;;10443572;28;20222;-80
2023/08/16 06:33:05;;;;;;;6.10;5.30;;;23.40;99.90;;;;;;10443451;28;20813;-79
2023/08/16 06:38:09;;;;;;;8.33;6.07;;;23.60;99.90;;;;;;10443342;28;20218;-79
2023/08/16 06:43:11;;;;;;;6.63;6.03;;;23.70;99.90;;;;;;10443404;28;20206;-79
2023/08/16 06:48:14;;;;;;;6.57;6.00;;;23.80;99.90;;;;;;10442898;28;20225;-79
2023/08/16 06:53:16;;;;;;;7.83;7.23;;;23.90;99.90;;;;;;10440606;28;20205;-80
2023/08/16 06:58:18;;;;;;;7.70;7.00;;;24.00;99.90;;;;;;10441027;28;20229;-78
2023/08/16 07:03:22;;;;;;;6.03;5.53;;;23.90;99.90;;;;;;10434350;28;20572;-78
2023/08/16 07:08:24;;;;;;;7.57;6.87;;;23.90;99.90;;;;;;10456020;28;20295;-79
2023/08/16 07:13:26;;;;;;;6.67;6.07;;;24.00;99.90;;;;;;10443103;28;20662;-81
2023/08/16 07:18:30;;;;;;;6.87;6.37;;;24.00;99.90;;;;;;10441302;28;20222;-79
2023/08/16 07:23:32;;;;;;;11.40;8.73;;;24.20;99.90;;;;;;10438071;28;20301;-79
2023/08/16 07:28:34;;;;;;;5.83;5.43;;;24.20;99.90;;;;;;10436949;28;20249;-79
2023/08/16 07:33:38;;;;;;;7.60;7.10;;;24.30;99.90;;;;;;10435638;28;20229;-80
2023/08/16 07:38:40;;;;;;;7.43;6.73;;;24.50;99.90;;;;;;10438642;28;20248;-79
2023/08/16 07:43:42;;;;;;;7.20;6.70;;;24.70;99.90;;;;;;10436369;28;20210;-79
2023/08/16 07:48:45;;;;;;;7.00;6.40;;;25.00;99.90;;;;;;10439164;28;20603;-80
2023/08/16 07:53:47;;;;;;;7.20;6.50;;;25.20;99.90;;;;;;10434068;28;20296;-79
2023/08/16 07:58:49;;;;;;;7.17;6.67;;;25.50;99.90;;;;;;10437311;28;20229;-79
2023/08/16 08:03:53;;;;;;;7.33;6.70;;;25.70;99.90;;;;;;10433442;28;20581;-79
2023/08/16 08:08:55;;;;;;;6.73;6.23;;;25.90;99.90;;;;;;10435636;28;20700;-79
2023/08/16 08:13:58;;;;;;;7.30;6.70;;;26.00;99.90;;;;;;10436989;28;20210;-80
2023/08/16 08:19:01;;;;;;;6.57;5.97;;;26.10;99.90;;;;;;10435430;28;20336;-79
2023/08/16 08:24:05;;;;;;;7.57;6.97;;;26.20;99.90;;;;;;10435217;28;20216;-80
2023/08/16 08:29:07;;;;;;;7.67;6.60;;;26.40;99.90;;;;;;10440423;28;20236;-82
2023/08/16 08:34:11;;;;;;;8.97;6.90;;;26.60;99.90;;;;;;10442983;28;20217;-79
2023/08/16 08:39:15;;;;;;;7.90;7.30;;;26.90;99.90;;;;;;10444231;28;20230;-80
2023/08/16 08:44:18;;;;;;;7.90;6.63;;;27.20;99.90;;;;;;10441706;28;20202;-80
2023/08/16 08:49:23;;;;;;;7.37;6.67;;;27.50;99.90;;;;;;10424624;28;20241;-80
2023/08/16 08:54:28;;;;;;;7.60;7.10;;;27.60;99.90;;;;;;10443317;28;20206;-80
2023/08/16 08:59:33;;;;;;;8.90;8.07;;;27.60;99.90;;;;;;10441904;28;20228;-80
2023/08/16 09:04:37;;;;;;;7.47;6.77;;;27.60;99.90;;;;;;10441701;28;20292;-80
2023/08/16 09:09:43;;;;;;;6.00;5.50;;;27.60;99.90;;;;;;10442933;28;20236;-80
2023/08/16 09:14:46;;;;;;;7.90;7.20;;;27.60;99.90;;;;;;10439089;28;20208;-80
2023/08/16 09:19:49;;;;;;;8.37;7.67;;;27.50;99.90;;;;;;10439369;28;20221;-80
2023/08/16 09:24:56;;;;;;;7.57;7.00;;;27.50;99.90;;;;;;10447589;28;20684;-81
2023/08/16 09:29:58;;;;;;;8.27;7.37;;;27.60;99.90;;;;;;10440123;28;20295;-80
2023/08/16 09:35:03;;;;;;;7.10;6.37;;;27.70;99.90;;;;;;10454978;28;20212;-80
2023/08/16 09:40:06;;;;;;;7.47;6.67;;;27.90;99.90;;;;;;10438730;28;20261;-80
2023/08/16 09:45:09;;;;;;;7.50;6.90;;;28.30;99.90;;;;;;10455270;28;20911;-80
2023/08/16 09:50:17;;;;;;;7.53;6.73;;;28.60;99.90;;;;;;10439786;28;20210;-80
2023/08/16 09:55:31;;;;;;;16.03;6.83;;;28.80;99.90;;;;;;10445456;28;20213;-80
2023/08/16 10:00:34;;;;;;;7.13;6.43;;;29.00;99.90;;;;;;10440826;28;20206;-81
2023/08/16 10:05:38;;;;;;;7.10;6.53;;;29.30;99.90;;;;;;10445176;28;20234;-81
2023/08/16 10:10:41;;;;;;;7.07;6.47;;;29.30;99.90;;;;;;10445895;28;20206;-80
2023/08/16 10:15:46;;;;;;;8.80;7.07;;;29.40;99.90;;;;;;10439148;28;20221;-81
2023/08/16 10:20:51;;;;;;;7.17;6.57;;;29.60;99.90;;;;;;10436942;28;20627;-80
2023/08/16 10:25:58;;;;;;;8.83;7.17;;;29.50;99.90;;;;;;10438781;28;20233;-80
2023/08/16 10:31:01;;;;;;;7.20;6.70;;;29.40;99.90;;;;;;10437325;28;20202;-80
2023/08/16 10:36:06;;;;;;;7.57;6.87;;;29.20;99.90;;;;;;10441437;28;20234;-80
2023/08/16 10:41:13;;;;;;;8.30;7.60;;;29.10;99.90;;;;;;10438685;28;20197;-80
2023/08/16 10:46:28;;;;;;;8.40;7.60;;;29.10;99.90;;;;;;10454447;23;20244;-84
2023/08/16 10:51:31;;;;;;;6.97;6.47;;;29.10;99.90;;;;;;10448859;28;20336;-81
2023/08/16 10:56:44;;;;;;;9.63;7.10;;;29.00;99.90;;;;;;10444475;28;20238;-85
2023/08/16 11:01:47;;;;;;;8.30;7.50;;;28.80;99.90;;;;;;10435574;28;20232;-83
2023/08/16 11:06:52;;;;;;;7.30;6.70;;;28.60;99.90;;;;;;10435785;28;20249;-84
2023/08/16 11:11:54;;;;;;;9.43;7.17;;;28.40;99.90;;;;;;10425159;28;20637;-84
2023/08/16 11:16:56;;;;;;;7.53;6.93;;;28.20;99.90;;;;;;10417464;28;20253;-83
2023/08/16 11:22:02;;;;;;;8.27;7.53;;;28.10;99.90;;;;;;10408196;28;20290;-84
2023/08/16 11:27:05;;;;;;;8.70;7.90;;;28.00;99.90;;;;;;10390291;28;20253;-83
2023/08/16 11:32:07;;;;;;;7.77;7.00;;;27.90;99.90;;;;;;10412279;28;20226;-83
2023/08/16 11:37:18;;;;;;;7.67;6.90;;;27.90;99.90;;;;;;10417024;28;20231;-83
2023/08/16 11:42:20;;;;;;;8.60;7.90;;;28.00;99.90;;;;;;10403229;28;20279;-82
2023/08/16 11:47:23;;;;;;;6.57;6.03;;;27.90;99.90;;;;;;10396285;28;20226;-84
2023/08/16 11:52:27;;;;;;;7.63;6.93;;;27.90;99.90;;;;;;10400939;28;20210;-84
2023/08/16 11:57:29;;;;;;;9.70;7.20;;;28.00;99.90;;;;;;10403435;28;20567;-84
2023/08/16 12:02:31;;;;;;;7.23;6.67;;;28.10;99.90;;;;;;10396535;28;20234;-83
2023/08/16 12:07:43;;;;;;;6.53;6.03;;;28.00;99.90;;;;;;10411927;28;20614;-83
2023/08/16 12:12:45;;;;;;;6.77;6.30;;;28.00;99.90;;;;;;10406184;28;20229;-82
2023/08/16 12:17:48;;;;;;;8.00;7.30;;;28.00;99.90;;;;;;10413701;28;20222;-82
2023/08/16 12:22:52;;;;;;;8.10;7.30;;;27.90;99.90;;;;;;10413467;28;20582;-83
2023/08/16 12:27:54;;;;;;;7.50;6.90;;;27.80;99.90;;;;;;10413191;28;20226;-84
2023/08/16 12:32:56;;;;;;;7.30;6.33;;;27.80;99.90;;;;;;10410666;28;20195;-84
2023/08/16 12:38:02;;;;;;;6.80;5.90;;;27.80;99.90;;;;;;10413076;28;20280;-83
2023/08/16 12:43:04;;;;;;;12.17;7.03;;;27.90;99.90;;;;;;10411342;28;20250;-84
2023/08/16 12:48:07;;;;;;;7.00;6.40;;;28.00;99.90;;;;;;10411468;28;20312;-84
2023/08/16 12:53:11;;;;;;;7.10;6.40;;;28.10;99.90;;;;;;10412378;28;20207;-84
2023/08/16 12:58:13;;;;;;;6.13;5.47;;;28.30;99.90;;;;;;10395082;28;20230;-84
2023/08/16 13:03:15;;;;;;;7.50;6.80;;;28.30;99.90;;;;;;10424200;28;20233;-84
2023/08/16 13:08:21;;;;;;;6.50;5.90;;;28.30;99.90;;;;;;10410655;28;20232;-84
2023/08/16 13:13:23;;;;;;;5.73;5.30;;;28.30;99.90;;;;;;10410696;28;20256;-84
2023/08/16 13:18:25;;;;;;;5.83;5.10;;;28.30;99.90;;;;;;10404028;28;20288;-83
2023/08/16 13:23:29;;;;;;;6.07;5.50;;;28.30;99.90;;;;;;10387135;28;20205;-84
2023/08/16 13:28:31;;;;;;;5.70;5.20;;;28.40;99.90;;;;;;10408419;28;20230;-83
2023/08/16 13:33:33;;;;;;;5.63;5.13;;;28.20;99.90;;;;;;10408640;28;20198;-84
2023/08/16 13:38:37;;;;;;;5.20;4.90;;;28.20;99.90;;;;;;10411513;28;20246;-83
2023/08/16 13:56:04;;;;;;;4.90;4.57;;;27.80;99.90;;;;;;10366532;28;20820;-83
2023/08/16 14:01:49;;;;;;;6.00;5.30;;;27.60;99.90;;;;;;10411672;28;20261;-84
2023/08/16 14:07:12;;;;;;;8.50;4.70;;;27.50;99.90;;;;;;10395324;28;20312;-83
2023/08/16 14:12:16;;;;;;;5.07;4.63;;;27.50;99.90;;;;;;10410887;28;20222;-84
2023/08/16 14:17:19;;;;;;;6.90;4.70;;;27.60;99.90;;;;;;10409123;28;20349;-84
2023/08/16 14:22:21;;;;;;;5.80;5.17;;;27.60;99.90;;;;;;10407077;28;20206;-83
2023/08/16 14:27:24;;;;;;;5.97;4.80;;;27.60;99.90;;;;;;10408698;28;20640;-83
2023/08/16 14:32:27;;;;;;;4.77;4.47;;;27.60;99.90;;;;;;10408110;28;20735;-84
2023/08/16 14:37:29;;;;;;;4.60;4.30;;;27.60;99.90;;;;;;10409469;28;20313;-83
2023/08/16 14:42:32;;;;;;;4.73;4.43;;;27.40;99.90;;;;;;10385937;28;20215;-84
2023/08/16 14:47:34;;;;;;;4.77;4.47;;;27.40;99.90;;;;;;10408059;28;20269;-84
2023/08/16 14:52:37;;;;;;;4.70;4.40;;;27.40;99.90;;;;;;10407612;28;20221;-84
2023/08/16 14:57:44;;;;;;;4.40;4.10;;;27.50;99.90;;;;;;10407635;28;20218;-84
2023/08/16 15:02:47;;;;;;;4.70;4.30;;;27.40;99.90;;;;;;10422101;28;20210;-83
2023/08/16 15:07:49;;;;;;;4.83;4.53;;;27.30;99.90;;;;;;10406489;28;20263;-83
2023/08/16 15:12:53;;;;;;;5.77;5.27;;;27.20;99.90;;;;;;10407596;28;20218;-84
2023/08/16 15:17:55;;;;;;;5.40;4.93;;;27.10;99.90;;;;;;10407945;28;20222;-83
2023/08/16 15:22:57;;;;;;;5.13;4.83;;;27.00;99.90;;;;;;10402826;28;20206;-84
2023/08/16 15:28:01;;;;;;;7.03;5.30;;;26.90;99.90;;;;;;10408039;28;20380;-83
2023/08/16 15:33:03;;;;;;;5.20;4.80;;;26.90;99.90;;;;;;10405602;28;20206;-84
2023/08/16 15:38:07;;;;;;;4.50;4.20;;;26.80;99.90;;;;;;10388813;28;20313;-84
2023/08/16 15:43:10;;;;;;;5.00;4.60;;;26.80;99.90;;;;;;10415479;28;20289;-84
2023/08/16 15:48:13;;;;;;;4.60;4.30;;;26.70;99.90;;;;;;10416908;28;20232;-84
2023/08/16 15:53:15;;;;;;;5.30;4.90;;;26.70;99.90;;;;;;10433441;28;20249;-85
2023/08/16 15:58:18;;;;;;;5.00;4.67;;;26.70;99.90;;;;;;10433785;28;20317;-85
2023/08/16 16:03:20;;;;;;;6.60;6.10;;;26.50;99.90;;;;;;10438447;28;20202;-83
2023/08/16 16:08:23;;;;;;;5.03;4.73;;;26.30;99.90;;;;;;10435881;28;20226;-83
2023/08/16 16:13:30;;;;;;;9.63;6.00;;;26.30;99.90;;;;;;10427135;28;20213;-84
2023/08/16 16:18:32;;;;;;;5.60;5.20;;;26.20;99.90;;;;;;10427711;28;20219;-84
2023/08/16 16:23:34;;;;;;;8.70;6.33;;;26.00;99.90;;;;;;10431790;28;20285;-84
2023/08/16 16:28:38;;;;;;;10.30;9.30;;;25.80;99.90;;;;;;10428766;28;20229;-85
2023/08/16 16:33:44;;;;;;;11.00;10.03;;;25.50;99.90;;;;;;10429819;28;20211;-85
2023/08/16 16:38:47;;;;;;;15.13;13.73;;;25.10;99.90;;;;;;10431212;28;20230;-85
2023/08/16 16:43:51;;;;;;;11.77;10.70;;;24.70;99.90;;;;;;10426049;28;20206;-85
2023/08/16 16:48:53;;;;;;;11.70;10.90;;;24.30;99.90;;;;;;10431088;23;20244;-78
2023/08/16 16:53:55;;;;;;;14.90;13.80;;;24.00;99.90;;;;;;10435967;28;20206;-78
2023/08/16 16:58:59;;;;;;;15.20;14.00;;;23.70;99.90;;;;;;10412881;28;20226;-78
2023/08/16 17:04:01;;;;;;;15.80;14.70;;;23.50;99.90;;;;;;10394024;28;20837;-79
2023/08/16 17:09:03;;;;;;;13.90;12.90;;;23.40;99.90;;;;;;10395901;28;20285;-80
2023/08/16 17:14:07;;;;;;;17.37;15.97;;;23.30;99.90;;;;;;10397169;28;20217;-80
2023/08/16 17:19:09;;;;;;;14.77;12.90;;;23.10;99.90;;;;;;10394812;28;20237;-78
2023/08/16 17:24:11;;;;;;;13.10;12.30;;;23.10;99.90;;;;;;10395770;28;20202;-79
2023/08/16 17:29:15;;;;;;;15.33;14.30;;;22.90;99.90;;;;;;10396753;28;20241;-78
2023/08/16 17:34:17;;;;;;;15.67;14.63;;;22.60;99.90;;;;;;10396654;28;20203;-79
2023/08/16 17:39:20;;;;;;;14.83;13.93;;;22.30;99.90;;;;;;10396897;28;20222;-79
2023/08/16 17:44:23;;;;;;;14.50;13.70;;;22.20;99.90;;;;;;10408074;28;20248;-79
2023/08/16 17:49:25;;;;;;;11.07;10.20;;;22.30;99.90;;;;;;10396224;28;20230;-79
2023/08/16 17:54:27;;;;;;;13.60;12.90;;;22.30;99.90;;;;;;10396291;28;20751;-79
2023/08/16 17:59:32;;;;;;;12.17;11.37;;;22.40;99.90;;;;;;10396891;28;20744;-80
2023/08/16 18:04:35;;;;;;;13.67;12.80;;;22.40;99.90;;;;;;10396093;28;20206;-78
2023/08/16 18:09:37;;;;;;;9.00;8.53;;;22.40;99.90;;;;;;10396210;28;20738;-78
2023/08/16 18:14:42;;;;;;;11.17;10.57;;;22.50;99.90;;;;;;10394747;28;20260;-78
2023/08/16 18:19:45;;;;;;;10.77;10.17;;;22.40;99.90;;;;;;10396814;28;20697;-79
2023/08/16 18:24:47;;;;;;;12.00;11.10;;;22.30;99.90;;;;;;10397003;28;20223;-79
2023/08/16 18:29:50;;;;;;;10.90;10.30;;;22.30;99.90;;;;;;10395542;28;20234;-78
2023/08/16 18:34:53;;;;;;;11.80;11.20;;;22.40;99.90;;;;;;10381268;28;20226;-79
2023/08/16 18:39:55;;;;;;;8.37;7.90;;;22.40;99.90;;;;;;10389313;28;20319;-80
2023/08/16 18:44:58;;;;;;;9.80;9.30;;;22.40;99.90;;;;;;10390180;28;20232;-79
2023/08/16 18:50:01;;;;;;;10.70;10.10;;;22.40;99.90;;;;;;10383583;28;20231;-79
2023/08/16 18:55:03;;;;;;;9.63;8.70;;;22.30;99.90;;;;;;10388870;28;20219;-79
2023/08/16 19:00:09;;;;;;;10.43;9.90;;;22.30;99.90;;;;;;10401943;28;20230;-81
2023/08/16 19:05:11;;;;;;;11.43;10.30;;;22.40;99.90;;;;;;10386623;28;20206;-79
2023/08/16 19:10:14;;;;;;;9.40;8.80;;;22.40;99.90;;;;;;10388295;28;20234;-78
2023/08/16 19:15:17;;;;;;;8.77;8.27;;;22.50;99.90;;;;;;10389924;28;20213;-79
2023/08/16 19:20:19;;;;;;;8.70;8.20;;;22.50;99.90;;;;;;10388521;28;20222;-80
2023/08/16 19:25:21;;;;;;;9.23;8.43;;;22.40;99.90;;;;;;10389129;28;20206;-78
2023/08/16 19:30:25;;;;;;;9.80;9.10;;;22.30;99.90;;;;;;10386979;28;20275;-78
2023/08/16 19:35:27;;;;;;;9.57;8.90;;;22.30;99.90;;;;;;10387847;28;20207;-79
2023/08/16 19:40:29;;;;;;;8.20;7.47;;;22.20;99.90;;;;;;10386163;28;20323;-79
2023/08/16 19:45:34;;;;;;;9.70;9.20;;;22.20;99.90;;;;;;10388305;28;20218;-78
2023/08/16 19:50:36;;;;;;;8.53;7.93;;;22.30;99.90;;;;;;10381399;28;20230;-80
2023/08/16 19:55:38;;;;;;;8.40;8.00;;;22.30;99.90;;;;;;10385938;28;20234;-80
2023/08/16 20:00:42;;;;;;;8.87;8.37;;;22.40;99.90;;;;;;10384223;28;20241;-80
2023/08/16 20:05:44;;;;;;;7.70;7.20;;;22.40;99.90;;;;;;10390084;28;20202;-78
2023/08/16 20:10:46;;;;;;;8.87;8.27;;;22.40;99.90;;;;;;10387787;28;20226;-79
2023/08/16 20:15:51;;;;;;;7.90;7.40;;;22.20;99.90;;;;;;10390412;28;20570;-78
2023/08/16 20:20:53;;;;;;;8.70;8.10;;;22.00;99.90;;;;;;10404621;28;20265;-78
2023/08/16 20:25:55;;;;;;;9.53;8.93;;;21.90;99.90;;;;;;10391027;28;20218;-78
2023/08/16 20:30:58;;;;;;;9.13;8.60;;;21.80;99.90;;;;;;10398677;28;20311;-78
2023/08/16 20:36:00;;;;;;;9.43;8.83;;;21.70;99.90;;;;;;10397574;28;20213;-78
2023/08/16 20:41:03;;;;;;;8.97;8.37;;;21.60;99.90;;;;;;10396461;28;20230;-79
2023/08/16 20:46:06;;;;;;;7.77;7.27;;;21.50;99.90;;;;;;10400140;28;20203;-78
2023/08/16 20:51:08;;;;;;;8.30;7.90;;;21.40;99.90;;;;;;10400278;28;20230;-78
2023/08/16 20:56:11;;;;;;;7.80;7.30;;;21.30;99.90;;;;;;10398182;28;20203;-78
2023/08/16 21:01:14;;;;;;;7.93;7.53;;;21.20;99.90;;;;;;10397366;28;20227;-78
2023/08/16 21:06:16;;;;;;;7.70;7.30;;;21.10;99.90;;;;;;10399475;28;20208;-77
2023/08/16 21:11:19;;;;;;;8.13;7.63;;;21.10;99.90;;;;;;10394068;28;20229;-80
2023/08/16 21:16:22;;;;;;;8.50;7.93;;;21.10;99.90;;;;;;10396104;28;20681;-77
2023/08/16 21:21:24;;;;;;;8.17;7.63;;;21.10;99.90;;;;;;10405115;28;20613;-78
2023/08/16 21:26:26;;;;;;;8.17;7.57;;;21.20;99.90;;;;;;10396364;28;20206;-79
2023/08/16 21:31:30;;;;;;;8.80;8.00;;;21.30;99.90;;;;;;10396757;28;20231;-78
2023/08/16 21:36:32;;;;;;;9.10;8.40;;;21.30;99.90;;;;;;10395391;28;20268;-78
2023/08/16 21:41:34;;;;;;;8.40;7.90;;;21.40;99.90;;;;;;10397941;28;20256;-79
2023/08/16 21:46:38;;;;;;;12.87;11.87;;;21.40;99.90;;;;;;10398039;28;20250;-81
2023/08/16 21:51:40;;;;;;;18.03;15.70;;;21.50;99.90;;;;;;10395964;28;20230;-78
2023/08/16 21:56:42;;;;;;;27.57;20.50;;;21.50;99.90;;;;;;10393104;28;20230;-78
2023/08/16 22:01:45;;;;;;;14.70;13.30;;;21.60;99.90;;;;;;10394927;28;20317;-78
2023/08/16 22:06:47;;;;;;;9.70;8.90;;;21.60;99.90;;;;;;10396293;28;20316;-79
2023/08/16 22:11:49;;;;;;;8.97;8.30;;;21.60;99.90;;;;;;10376560;28;20230;-77
2023/08/16 22:16:53;;;;;;;7.87;7.40;;;21.60;99.90;;;;;;10399418;28;20218;-76
2023/08/16 22:21:55;;;;;;;7.70;7.17;;;21.60;99.90;;;;;;10377268;28;20199;-79
2023/08/16 22:26:57;;;;;;;7.83;7.30;;;21.60;99.90;;;;;;10382348;28;20293;-79
2023/08/16 22:32:00;;;;;;;7.97;7.27;;;21.60;99.90;;;;;;10402856;28;20217;-78
2023/08/16 22:37:02;;;;;;;7.87;7.10;;;21.60;99.90;;;;;;10396047;28;20729;-78
2023/08/16 22:42:05;;;;;;;7.77;7.27;;;21.70;99.90;;;;;;10392938;28;20288;-79
2023/08/16 22:52:21;;;;;;;7.40;6.70;;;21.70;99.90;;;;;;10447844;28;20264;-84
2023/08/16 22:57:23;;;;;;;9.23;7.10;;;21.60;99.90;;;;;;10417858;28;20310;-84
2023/08/16 23:02:25;;;;;;;7.63;6.87;;;21.50;99.90;;;;;;10418826;28;20201;-86
2023/08/16 23:07:28;;;;;;;6.87;6.37;;;21.60;99.90;;;;;;10419923;28;20289;-86
2023/08/16 23:12:31;;;;;;;9.20;7.10;;;21.50;99.90;;;;;;10422945;28;20245;-84
2023/08/16 23:17:33;;;;;;;6.33;5.93;;;21.50;99.90;;;;;;10424664;28;20226;-86
2023/08/16 23:22:37;;;;;;;7.93;7.23;;;21.40;99.90;;;;;;10427960;28;20198;-87
2023/08/16 23:27:39;;;;;;;8.27;7.60;;;21.40;99.90;;;;;;10431810;28;20231;-85
2023/08/16 23:32:42;;;;;;;9.00;8.40;;;21.50;99.90;;;;;;10415537;28;20198;-87
2023/08/16 23:37:45;;;;;;;8.40;7.80;;;21.50;99.90;;;;;;10415064;28;20226;-85
2023/08/16 23:42:49;;;;;;;9.70;8.80;;;21.50;99.90;;;;;;10416940;28;20215;-86
2023/08/16 23:47:51;;;;;;;10.13;9.33;;;21.60;99.90;;;;;;10414694;28;20272;-85
2023/08/16 23:52:54;;;;;;;8.80;8.10;;;21.60;99.90;;;;;;10418761;28;20206;-85
2023/08/16 23:57:57;;;;;;;9.90;9.00;;;21.60;99.90;;;;;;10416136;28;20226;-85
